Time;durP1;ratioP1;P1;durP2;ratioP2;P2;SDS_P1;SDS_P2;PMS_P1;PMS_P2;Temp;Humidity;BMP_temperature;BMP_pressure;BME280_temperature;BME280_humidity;BME280_pressure;Samples;Min_cycle;Max_cycle;Signal;HPM_P1;HPM_P2
2021/10/28 00:16:46;;;;;;;11.27;2.90;;;6.80;99.90;;;;;;10374169;28;20054;-58
2021/10/28 00:21:49;;;;;;;5.78;2.80;;;6.80;99.90;;;;;;10355524;28;20116;-58
2021/10/28 00:26:51;;;;;;;5.63;2.58;;;6.70;99.90;;;;;;10377600;28;20045;-58
2021/10/28 00:31:57;;;;;;;8.80;2.78;;;6.70;99.90;;;;;;10369005;28;20889;-58
2021/10/28 00:36:58;;;;;;;6.20;2.72;;;6.60;99.90;;;;;;10373149;28;20578;-59
2021/10/28 00:42:00;;;;;;;9.52;3.17;;;6.60;99.90;;;;;;10374011;28;20081;-58
2021/10/28 00:47:04;;;;;;;5.75;2.47;;;6.60;99.90;;;;;;10366046;28;20050;-58
2021/10/28 00:52:06;;;;;;;6.13;3.03;;;6.60;99.90;;;;;;10373534;28;20111;-58
2021/10/28 00:57:08;;;;;;;10.13;2.97;;;6.50;99.90;;;;;;10371619;28;20050;-58
2021/10/28 01:02:10;;;;;;;4.50;2.50;;;6.60;99.90;;;;;;10374791;28;20124;-58
2021/10/28 01:07:12;;;;;;;9.93;3.13;;;6.50;99.90;;;;;;10377282;28;20049;-58
2021/10/28 01:12:14;;;;;;;6.40;3.03;;;6.50;99.90;;;;;;10377417;28;20043;-58
2021/10/28 01:17:16;;;;;;;7.05;3.08;;;6.40;99.90;;;;;;10378468;28;20184;-59
2021/10/28 01:22:19;;;;;;;8.68;3.03;;;6.40;99.90;;;;;;10363070;28;20053;-59
2021/10/28 01:27:21;;;;;;;28.40;10.18;;;6.30;99.90;;;;;;10385029;28;20037;-60
2021/10/28 01:32:22;;;;;;;22.42;8.43;;;6.30;99.90;;;;;;10384231;28;20096;-58
2021/10/28 01:37:24;;;;;;;17.13;6.50;;;6.30;99.90;;;;;;10372367;28;20062;-58
2021/10/28 01:42:26;;;;;;;13.80;5.70;;;6.20;99.90;;;;;;10381649;28;20080;-58
2021/10/28 01:47:28;;;;;;;10.05;3.60;;;6.20;99.90;;;;;;10376367;28;20080;-58
2021/10/28 01:52:29;;;;;;;9.55;4.47;;;6.10;99.90;;;;;;10376625;28;20073;-58
2021/10/28 01:57:31;;;;;;;7.93;3.92;;;6.10;99.90;;;;;;10367342;28;20069;-58
2021/10/28 02:02:33;;;;;;;9.98;3.95;;;6.10;99.90;;;;;;10375949;28;20038;-58
2021/10/28 02:07:35;;;;;;;11.73;4.20;;;6.10;99.90;;;;;;10379992;28;20408;-58
2021/10/28 02:12:38;;;;;;;12.65;3.42;;;6.00;99.90;;;;;;10372295;28;20061;-58
2021/10/28 02:17:40;;;;;;;13.18;4.32;;;6.00;99.90;;;;;;10372340;28;20050;-59
2021/10/28 02:22:42;;;;;;;6.15;3.33;;;6.00;99.90;;;;;;10378408;28;20119;-58
2021/10/28 02:27:46;;;;;;;8.27;4.32;;;5.90;99.90;;;;;;10380377;28;20050;-59
2021/10/28 02:32:47;;;;;;;10.20;3.63;;;5.90;99.90;;;;;;10377589;28;20046;-58
2021/10/28 02:37:49;;;;;;;10.55;3.80;;;5.80;99.90;;;;;;10381368;28;20143;-59
2021/10/28 02:42:51;;;;;;;8.30;3.38;;;5.80;99.90;;;;;;10359813;28;20049;-58
2021/10/28 02:47:53;;;;;;;10.10;3.65;;;5.70;99.90;;;;;;10378844;28;20531;-58
2021/10/28 02:52:54;;;;;;;12.88;4.15;;;5.60;99.90;;;;;;10370216;28;20049;-58
2021/10/28 02:57:56;;;;;;;7.05;3.50;;;5.60;99.90;;;;;;10375560;28;20081;-58
2021/10/28 03:02:58;;;;;;;9.23;3.55;;;5.50;99.90;;;;;;10373058;28;20045;-58
2021/10/28 03:07:59;;;;;;;7.53;3.35;;;5.50;99.90;;;;;;10372128;28;20447;-58
2021/10/28 03:13:01;;;;;;;7.68;3.55;;;5.50;99.90;;;;;;10375202;28;20479;-58
2021/10/28 03:28:53;;;;;;;5.20;2.65;;;5.40;99.90;;;;;;10368408;28;20053;-58
2021/10/28 03:33:55;;;;;;;3.75;2.58;;;5.30;99.90;;;;;;10374262;28;20049;-58
2021/10/28 03:44:43;;;;;;;4.28;2.72;;;5.20;99.90;;;;;;10370743;28;20127;-58
2021/10/28 03:50:15;;;;;;;28.80;4.85;;;5.10;99.90;;;;;;10368339;28;20057;-58
2021/10/28 04:06:12;;;;;;;7.10;3.20;;;5.00;99.90;;;;;;10363431;28;20014;-58
2021/10/28 04:32:38;;;;;;;7.95;3.60;;;4.70;99.90;;;;;;10361821;28;20155;-58
2021/10/28 04:37:43;;;;;;;26.85;4.32;;;4.70;99.90;;;;;;10349668;28;20599;-58
2021/10/28 04:42:44;;;;;;;17.65;4.47;;;4.70;99.90;;;;;;10378910;28;20120;-59
2021/10/28 04:47:46;;;;;;;58.42;7.80;;;4.70;99.90;;;;;;10376686;28;20107;-58
2021/10/28 04:52:48;;;;;;;21.70;5.13;;;4.70;99.90;;;;;;10377234;28;20041;-58
2021/10/28 04:57:49;;;;;;;23.90;5.05;;;4.70;99.90;;;;;;10371511;28;20053;-58
2021/10/28 05:02:51;;;;;;;44.08;6.40;;;4.70;99.90;;;;;;10361655;28;20038;-57
2021/10/28 05:07:53;;;;;;;39.25;5.45;;;4.60;99.90;;;;;;10377302;28;20069;-59
2021/10/28 05:17:22;;;;;;;45.10;5.68;;;4.70;99.90;;;;;;10387583;27;20160;-57
2021/10/28 05:22:23;;;;;;;62.67;6.75;;;4.60;99.90;;;;;;10348585;28;20104;-57
2021/10/28 05:27:25;;;;;;;19.52;4.40;;;4.50;99.90;;;;;;10350987;28;20069;-58
2021/10/28 05:32:35;;;;;;;28.48;3.47;;;4.50;99.90;;;;;;10362376;28;20492;-60
2021/10/28 05:37:37;;;;;;;43.13;4.43;;;4.50;99.90;;;;;;10358262;28;20500;-58
2021/10/28 05:42:43;;;;;;;34.15;7.18;;;4.40;99.90;;;;;;10356963;28;20046;-58
2021/10/28 05:47:44;;;;;;;13.02;4.65;;;4.40;99.90;;;;;;10359830;28;20077;-58
2021/10/28 05:52:57;;;;;;;99.45;9.55;;;4.40;99.90;;;;;;10363009;28;20045;-58
2021/10/28 05:57:59;;;;;;;40.30;4.68;;;4.40;99.90;;;;;;10356438;28;20567;-58
2021/10/28 06:03:00;;;;;;;52.72;6.80;;;4.40;99.90;;;;;;10365935;28;20104;-62
2021/10/28 06:08:05;;;;;;;61.42;6.97;;;4.40;99.90;;;;;;10360737;28;20052;-62
2021/10/28 06:13:08;;;;;;;14.10;3.80;;;4.40;99.90;;;;;;10358951;28;20139;-63
2021/10/28 06:18:35;;;;;;;10.73;3.25;;;4.50;99.90;;;;;;10364531;28;20042;-63
2021/10/28 06:23:35;;;;;;;8.38;3.53;;;4.50;99.90;;;;;;10358327;28;20104;-63
2021/10/28 06:28:36;;;;;;;30.30;4.45;;;4.60;99.90;;;;;;10327655;28;20043;-63
2021/10/28 06:33:46;;;;;;;120.45;10.48;;;4.60;99.90;;;;;;10333887;28;20058;-61
2021/10/28 06:38:47;;;;;;;79.95;5.68;;;4.60;99.90;;;;;;10336578;28;20050;-61
2021/10/28 06:43:49;;;;;;;59.47;5.80;;;4.70;99.90;;;;;;10333637;28;20122;-62
2021/10/28 06:48:51;;;;;;;23.25;4.88;;;4.60;99.90;;;;;;10336559;28;20065;-65
2021/10/28 06:54:01;;;;;;;34.30;5.28;;;4.70;99.90;;;;;;10327466;28;20092;-62
2021/10/28 07:04:23;;;;;;;30.23;5.03;;;4.70;99.90;;;;;;10326438;28;20113;-62
2021/10/28 07:14:30;;;;;;;13.65;4.32;;;4.80;99.90;;;;;;10330099;28;20054;-62
2021/10/28 07:30:12;;;;;;;23.10;6.15;;;5.20;99.90;;;;;;10327577;28;20152;-62
2021/10/28 07:35:34;;;;;;;21.95;6.85;;;5.40;99.90;;;;;;10329400;28;20050;-62
2021/10/28 08:18:13;;;;;;;23.30;8.48;;;7.20;99.90;;;;;;10328499;28;20054;-65
2021/10/28 08:33:42;;;;;;;19.88;9.13;;;8.00;99.90;;;;;;10326884;28;20533;-65
2021/10/28 08:38:44;;;;;;;22.05;9.43;;;8.20;99.90;;;;;;10332280;28;20104;-65
2021/10/28 08:43:46;;;;;;;19.13;8.75;;;8.30;99.90;;;;;;10327607;28;20452;-63
2021/10/28 08:48:54;;;;;;;19.85;8.80;;;8.60;99.90;;;;;;10331257;28;20054;-62
2021/10/28 08:59:59;;;;;;;17.33;8.68;;;8.90;99.90;;;;;;10327578;28;20765;-62
2021/10/28 09:31:38;;;;;;;20.40;9.20;;;9.10;99.90;;;;;;10324914;28;20460;-64
2021/10/28 09:47:42;;;;;;;21.52;9.05;;;9.30;99.90;;;;;;10321382;28;20105;-63
2021/10/28 09:53:05;;;;;;;15.25;8.23;;;9.50;99.90;;;;;;10327523;28;20085;-63
2021/10/28 09:58:33;;;;;;;20.42;8.60;;;9.60;99.90;;;;;;10328725;28;20531;-63
2021/10/28 10:03:39;;;;;;;23.20;10.68;;;9.70;99.90;;;;;;10328330;28;20100;-63
2021/10/28 10:08:41;;;;;;;27.85;11.23;;;9.80;99.90;;;;;;10336300;28;20057;-63
2021/10/28 10:13:46;;;;;;;21.77;10.30;;;10.00;99.90;;;;;;10332878;28;20050;-62
2021/10/28 10:18:50;;;;;;;22.67;11.23;;;9.90;99.90;;;;;;10328809;28;20046;-62
2021/10/28 11:03:28;;;;;;;26.70;11.63;;;9.70;99.90;;;;;;10329555;28;20046;-63
2021/10/28 11:31:54;;;;;;;24.15;8.77;;;9.40;99.90;;;;;;10306785;28;20123;-91
2021/10/28 12:54:12;;;;;;;27.23;10.20;;;9.30;99.90;;;;;;10372140;28;20089;-89
2021/10/28 14:21:16;;;;;;;24.65;11.27;;;10.00;99.90;;;;;;10304430;28;20053;-89
2021/10/28 14:37:21;;;;;;;30.27;11.02;;;9.90;99.90;;;;;;10308419;28;20665;-89
2021/10/28 15:27:38;;;;;;;29.17;10.43;;;9.90;99.90;;;;;;10325400;28;20100;-92
2021/10/28 15:36:18;;;;;;;28.58;12.02;;;9.80;99.90;;;;;;10224996;28;20073;-93
2021/10/28 15:57:55;;;;;;;27.40;10.77;;;9.50;99.90;;;;;;10324648;28;20140;-92
2021/10/28 16:24:38;;;;;;;34.30;12.55;;;9.20;99.90;;;;;;10297194;28;20121;-92
2021/10/28 16:29:43;;;;;;;38.40;13.15;;;9.20;99.90;;;;;;10320855;28;20549;-92
2021/10/28 16:34:48;;;;;;;38.42;12.75;;;9.20;99.90;;;;;;10275990;28;20050;-93
2021/10/28 16:39:52;;;;;;;31.67;12.73;;;9.20;99.90;;;;;;10384599;28;20062;-92
2021/10/28 16:44:54;;;;;;;36.10;13.43;;;9.10;99.90;;;;;;10324484;28;20536;-92
2021/10/28 16:49:57;;;;;;;32.70;12.65;;;9.10;99.90;;;;;;10331571;28;20054;-92
2021/10/28 16:54:59;;;;;;;36.45;13.15;;;9.10;99.90;;;;;;10325514;28;20092;-92
2021/10/28 17:00:06;;;;;;;32.05;12.77;;;9.10;99.90;;;;;;10347480;28;20062;-89
2021/10/28 17:05:10;;;;;;;32.53;12.40;;;9.20;99.90;;;;;;10328601;28;20137;-88
2021/10/28 17:10:12;;;;;;;35.08;13.10;;;9.10;99.90;;;;;;10343178;28;21077;-89
2021/10/28 17:15:16;;;;;;;36.30;12.60;;;9.20;99.90;;;;;;10356656;28;20060;-89
2021/10/28 17:20:37;;;;;;;33.80;12.90;;;9.10;99.90;;;;;;10368500;28;20046;-88
2021/10/28 17:25:59;;;;;;;39.20;13.45;;;9.10;99.90;;;;;;10316642;28;20491;-91
2021/10/28 17:31:06;;;;;;;36.30;13.60;;;9.20;99.90;;;;;;10222726;28;20060;-92
2021/10/28 17:36:11;;;;;;;36.65;13.07;;;9.10;99.90;;;;;;10278365;28;20121;-91
2021/10/28 17:41:15;;;;;;;41.92;14.15;;;9.10;99.90;;;;;;10241874;28;20761;-92
2021/10/28 17:46:27;;;;;;;37.78;14.48;;;9.20;99.90;;;;;;10276342;28;20107;-92
2021/10/28 17:51:31;;;;;;;45.05;15.23;;;9.20;99.90;;;;;;10359550;28;20054;-91
2021/10/28 17:56:35;;;;;;;38.38;13.38;;;9.20;99.90;;;;;;10323316;28;20574;-90
2021/10/28 18:01:39;;;;;;;42.83;15.20;;;9.20;99.90;;;;;;10256815;28;20061;-91
2021/10/28 18:06:42;;;;;;;41.75;14.20;;;9.20;99.90;;;;;;10347330;28;20123;-90
2021/10/28 18:12:05;;;;;;;41.40;14.57;;;9.20;99.90;;;;;;10217698;28;20564;-91
2021/10/28 18:17:35;;;;;;;34.63;13.43;;;9.30;99.90;;;;;;10073472;28;20053;-91
2021/10/28 18:23:11;;;;;;;31.17;12.57;;;9.30;99.90;;;;;;9923972;28;20086;-91
2021/10/28 18:28:56;;;;;;;34.10;12.82;;;9.30;99.90;;;;;;9993538;28;20501;-91
2021/10/28 18:34:43;;;;;;;41.88;12.80;;;9.40;99.90;;;;;;9960255;28;20141;-90
2021/10/28 18:40:14;;;;;;;35.28;12.80;;;9.30;99.90;;;;;;9990599;28;20051;-91
2021/10/28 18:45:44;;;;;;;27.77;12.23;;;9.40;99.90;;;;;;9989192;28;20052;-90
2021/10/28 18:51:12;;;;;;;41.17;14.60;;;9.40;99.90;;;;;;10041022;28;20112;-91
2021/10/28 18:56:46;;;;;;;37.00;11.90;;;9.40;99.90;;;;;;10020064;28;20070;-90
2021/10/28 19:02:30;;;;;;;29.60;12.38;;;9.40;99.90;;;;;;10010065;28;20059;-91
2021/10/28 19:08:07;;;;;;;34.70;12.45;;;9.40;99.90;;;;;;10001586;28;20055;-91
2021/10/28 19:13:36;;;;;;;31.92;12.23;;;9.50;99.90;;;;;;9992779;28;20106;-91
2021/10/28 19:19:01;;;;;;;30.08;12.88;;;9.50;99.90;;;;;;10045298;28;20139;-91
2021/10/28 19:24:15;;;;;;;35.75;13.05;;;9.50;99.90;;;;;;10305383;28;20439;-59
2021/10/28 19:29:17;;;;;;;40.30;14.30;;;9.40;99.90;;;;;;10331401;28;20112;-59
2021/10/28 19:34:19;;;;;;;35.15;13.77;;;9.40;99.90;;;;;;10367212;28;20081;-58
2021/10/28 19:39:30;;;;;;;32.42;13.07;;;9.40;99.90;;;;;;10384120;28;20118;-59
2021/10/28 19:49:52;;;;;;;36.03;13.02;;;9.50;99.90;;;;;;10412292;28;20072;-59
2021/10/28 19:54:58;;;;;;;29.80;13.95;;;9.50;99.90;;;;;;10418948;28;20150;-59
2021/10/28 20:00:48;;;;;;;32.60;13.20;;;9.40;99.90;;;;;;10411203;28;20109;-59
2021/10/28 20:21:16;;;;;;;34.92;13.50;;;9.60;99.90;;;;;;10416760;28;20055;-59
2021/10/28 20:26:18;;;;;;;37.58;12.32;;;9.60;99.90;;;;;;10408892;28;20085;-59
2021/10/28 20:31:22;;;;;;;34.80;13.02;;;9.60;99.90;;;;;;10412809;28;20073;-59
2021/10/28 20:41:29;;;;;;;30.77;11.68;;;9.30;99.90;;;;;;10411615;28;20090;-59
2021/10/28 20:46:31;;;;;;;33.55;12.75;;;9.20;99.90;;;;;;10404745;28;20132;-59
2021/10/28 20:51:33;;;;;;;30.50;11.50;;;9.00;99.90;;;;;;10409192;28;20580;-59
2021/10/28 20:56:36;;;;;;;29.08;11.80;;;8.80;99.90;;;;;;10405542;28;20049;-59
2021/10/28 21:01:38;;;;;;;35.92;13.60;;;8.60;99.90;;;;;;10413169;28;20079;-59
2021/10/28 21:06:40;;;;;;;38.50;14.85;;;8.40;99.90;;;;;;10408932;28;20064;-58
2021/10/28 21:11:47;;;;;;;35.15;13.57;;;8.30;99.90;;;;;;10408483;28;20088;-59
2021/10/28 21:16:49;;;;;;;40.47;13.55;;;8.20;99.90;;;;;;10370943;28;20541;-58
2021/10/28 21:21:51;;;;;;;33.90;12.77;;;8.00;99.90;;;;;;10403755;28;20053;-58
2021/10/28 21:26:53;;;;;;;34.17;13.25;;;7.90;99.90;;;;;;10415651;28;20076;-58
2021/10/28 21:31:55;;;;;;;35.78;12.93;;;7.70;99.90;;;;;;10417692;28;20576;-58
2021/10/28 21:36:57;;;;;;;37.95;14.45;;;7.60;99.90;;;;;;10411230;28;20464;-58
2021/10/28 21:41:59;;;;;;;36.92;14.20;;;7.40;99.90;;;;;;10409982;28;20569;-58
2021/10/28 21:47:01;;;;;;;42.40;14.75;;;7.30;99.90;;;;;;10408806;28;20782;-57
2021/10/28 22:29:07;;;;;;;39.40;13.93;;;6.50;99.90;;;;;;10412864;28;20575;-57
2021/10/28 22:34:09;;;;;;;41.45;13.10;;;6.40;99.90;;;;;;10407132;28;20121;-59
2021/10/28 22:39:16;;;;;;;49.33;15.70;;;6.40;99.90;;;;;;10414846;28;20104;-57
2021/10/28 22:44:18;;;;;;;47.10;15.82;;;6.30;99.90;;;;;;10415579;28;20098;-58
2021/10/28 22:49:19;;;;;;;43.03;14.40;;;6.20;99.90;;;;;;10408869;28;20484;-57
2021/10/28 22:54:21;;;;;;;38.15;13.27;;;6.20;99.90;;;;;;10413859;28;20366;-58
2021/10/28 22:59:24;;;;;;;33.10;12.48;;;6.10;99.90;;;;;;10418030;28;20049;-57
2021/10/28 23:04:43;;;;;;;37.53;13.48;;;6.00;99.90;;;;;;10421761;28;20053;-58
2021/10/28 23:15:28;;;;;;;34.42;11.85;;;5.90;99.90;;;;;;10413182;28;20084;-57
2021/10/28 23:25:40;;;;;;;37.97;12.55;;;5.70;99.90;;;;;;10408747;28;20099;-57
2021/10/28 23:30:42;;;;;;;42.05;12.55;;;5.60;99.90;;;;;;10414320;28;20053;-57
2021/10/28 23:35:45;;;;;;;39.47;13.13;;;5.60;99.90;;;;;;10413569;28;20068;-57
2021/10/28 23:40:47;;;;;;;43.85;14.70;;;5.50;99.90;;;;;;10413085;28;20065;-57
2021/10/28 23:45:49;;;;;;;43.03;13.60;;;5.50;99.90;;;;;;10410945;28;20049;-58
2021/10/28 23:50:50;;;;;;;31.25;10.88;;;5.50;99.90;;;;;;10412300;28;20626;-57
2021/10/28 23:55:53;;;;;;;41.10;12.88;;;5.50;99.90;;;;;;10412817;28;20049;-57
